sensor_id;sensor_type;location;lat;lon;timestamp;pressure;altitude;pressure_sealevel;temperature
15626;BMP180;7912;51.376;6.126;2022-10-17T00:01:19;101308.00;;;19.40
15626;BMP180;7912;51.376;6.126;2022-10-17T00:03:47;101306.00;;;19.40
15626;BMP180;7912;51.376;6.126;2022-10-17T00:06:15;101307.00;;;19.40
15626;BMP180;7912;51.376;6.126;2022-10-17T00:08:43;101298.00;;;19.40
15626;BMP180;7912;51.376;6.126;2022-10-17T00:11:20;101293.00;;;19.40
15626;BMP180;7912;51.376;6.126;2022-10-17T00:13:50;101295.00;;;19.40
15626;BMP180;7912;51.376;6.126;2022-10-17T00:16:26;101299.00;;;19.40
15626;BMP180;7912;51.376;6.126;2022-10-17T00:18:55;101292.00;;;19.40
15626;BMP180;7912;51.376;6.126;2022-10-17T00:21:24;101292.00;;;19.30
15626;BMP180;7912;51.376;6.126;2022-10-17T00:23:52;101296.00;;;19.40
15626;BMP180;7912;51.376;6.126;2022-10-17T00:26:20;101300.00;;;19.40
15626;BMP180;7912;51.376;6.126;2022-10-17T00:28:51;101292.00;;;19.40
15626;BMP180;7912;51.376;6.126;2022-10-17T00:31:21;101288.00;;;19.30
15626;BMP180;7912;51.376;6.126;2022-10-17T00:33:49;101291.00;;;19.40
15626;BMP180;7912;51.376;6.126;2022-10-17T00:36:24;101284.00;;;19.40
15626;BMP180;7912;51.376;6.126;2022-10-17T00:38:55;101297.00;;;19.30
15626;BMP180;7912;51.376;6.126;2022-10-17T00:41:28;101296.00;;;19.40
15626;BMP180;7912;51.376;6.126;2022-10-17T00:44:04;101298.00;;;19.30
15626;BMP180;7912;51.376;6.126;2022-10-17T00:46:36;101280.00;;;19.30
15626;BMP180;7912;51.376;6.126;2022-10-17T00:49:10;101286.00;;;19.30
15626;BMP180;7912;51.376;6.126;2022-10-17T00:51:46;101291.00;;;19.30
15626;BMP180;7912;51.376;6.126;2022-10-17T00:54:24;101290.00;;;19.30
15626;BMP180;7912;51.376;6.126;2022-10-17T00:56:53;101283.00;;;19.30
15626;BMP180;7912;51.376;6.126;2022-10-17T00:59:22;101291.00;;;19.30
15626;BMP180;7912;51.376;6.126;2022-10-17T01:02:08;101287.00;;;19.30
15626;BMP180;7912;51.376;6.126;2022-10-17T01:04:40;101296.00;;;19.30
15626;BMP180;7912;51.376;6.126;2022-10-17T01:07:09;101296.00;;;19.20
15626;BMP180;7912;51.376;6.126;2022-10-17T01:09:37;101293.00;;;19.30
15626;BMP180;7912;51.376;6.126;2022-10-17T01:15:24;101290.00;;;19.20
15626;BMP180;7912;51.376;6.126;2022-10-17T01:31:47;101294.00;;;19.20
15626;BMP180;7912;51.376;6.126;2022-10-17T01:34:31;101290.00;;;19.20
15626;BMP180;7912;51.376;6.126;2022-10-17T01:37:15;101289.00;;;19.20
15626;BMP180;7912;51.376;6.126;2022-10-17T01:39:52;101287.00;;;19.20
15626;BMP180;7912;51.376;6.126;2022-10-17T01:42:44;101284.00;;;19.10
15626;BMP180;7912;51.376;6.126;2022-10-17T01:45:20;101275.00;;;19.20
15626;BMP180;7912;51.376;6.126;2022-10-17T01:47:51;101260.00;;;19.20
15626;BMP180;7912;51.376;6.126;2022-10-17T01:50:29;101273.00;;;19.20
15626;BMP180;7912;51.376;6.126;2022-10-17T01:53:05;101279.00;;;19.20
15626;BMP180;7912;51.376;6.126;2022-10-17T01:55:38;101284.00;;;19.20
15626;BMP180;7912;51.376;6.126;2022-10-17T01:58:13;101280.00;;;19.20
15626;BMP180;7912;51.376;6.126;2022-10-17T02:00:44;101276.00;;;19.20
15626;BMP180;7912;51.376;6.126;2022-10-17T02:03:18;101268.00;;;19.20
15626;BMP180;7912;51.376;6.126;2022-10-17T02:05:47;101272.00;;;19.20
15626;BMP180;7912;51.376;6.126;2022-10-17T02:08:38;101260.00;;;19.20
15626;BMP180;7912;51.376;6.126;2022-10-17T02:11:18;101254.00;;;19.20
15626;BMP180;7912;51.376;6.126;2022-10-17T02:22:41;101247.00;;;19.20
15626;BMP180;7912;51.376;6.126;2022-10-17T02:28:43;101243.00;;;19.20
15626;BMP180;7912;51.376;6.126;2022-10-17T02:31:16;101244.00;;;19.20
15626;BMP180;7912;51.376;6.126;2022-10-17T02:34:10;101249.00;;;19.20
15626;BMP180;7912;51.376;6.126;2022-10-17T02:36:47;101241.00;;;19.30
15626;BMP180;7912;51.376;6.126;2022-10-17T02:39:15;101250.00;;;19.30
15626;BMP180;7912;51.376;6.126;2022-10-17T02:41:44;101241.00;;;19.30
15626;BMP180;7912;51.376;6.126;2022-10-17T02:44:14;101252.00;;;19.30
15626;BMP180;7912;51.376;6.126;2022-10-17T02:46:50;101251.00;;;19.30
15626;BMP180;7912;51.376;6.126;2022-10-17T02:49:33;101244.00;;;19.30
15626;BMP180;7912;51.376;6.126;2022-10-17T02:52:36;101241.00;;;19.30
15626;BMP180;7912;51.376;6.126;2022-10-17T02:55:15;101242.00;;;19.30
15626;BMP180;7912;51.376;6.126;2022-10-17T02:57:55;101244.00;;;19.30
15626;BMP180;7912;51.376;6.126;2022-10-17T03:00:26;101243.00;;;19.30
15626;BMP180;7912;51.376;6.126;2022-10-17T03:02:55;101243.00;;;19.30
15626;BMP180;7912;51.376;6.126;2022-10-17T03:05:28;101245.00;;;19.30
15626;BMP180;7912;51.376;6.126;2022-10-17T03:07:55;101257.00;;;19.30
15626;BMP180;7912;51.376;6.126;2022-10-17T03:10:23;101251.00;;;19.40
15626;BMP180;7912;51.376;6.126;2022-10-17T03:12:51;101253.00;;;19.40
15626;BMP180;7912;51.376;6.126;2022-10-17T03:15:18;101247.00;;;19.40
15626;BMP180;7912;51.376;6.126;2022-10-17T03:17:45;101237.00;;;19.40
15626;BMP180;7912;51.376;6.126;2022-10-17T03:20:13;101245.00;;;19.40
15626;BMP180;7912;51.376;6.126;2022-10-17T03:22:40;101255.00;;;19.40
15626;BMP180;7912;51.376;6.126;2022-10-17T03:25:07;101252.00;;;19.40
15626;BMP180;7912;51.376;6.126;2022-10-17T03:27:34;101267.00;;;19.40
15626;BMP180;7912;51.376;6.126;2022-10-17T03:30:02;101277.00;;;19.40
15626;BMP180;7912;51.376;6.126;2022-10-17T03:32:33;101273.00;;;19.40
15626;BMP180;7912;51.376;6.126;2022-10-17T03:35:00;101269.00;;;19.40
15626;BMP180;7912;51.376;6.126;2022-10-17T03:37:28;101273.00;;;19.40
15626;BMP180;7912;51.376;6.126;2022-10-17T03:39:55;101280.00;;;19.40
15626;BMP180;7912;51.376;6.126;2022-10-17T03:42:23;101277.00;;;19.40
15626;BMP180;7912;51.376;6.126;2022-10-17T03:44:50;101289.00;;;19.40
15626;BMP180;7912;51.376;6.126;2022-10-17T03:47:17;101283.00;;;19.40
15626;BMP180;7912;51.376;6.126;2022-10-17T03:49:45;101279.00;;;19.40
15626;BMP180;7912;51.376;6.126;2022-10-17T03:52:13;101282.00;;;19.40
15626;BMP180;7912;51.376;6.126;2022-10-17T03:54:41;101274.00;;;19.40
15626;BMP180;7912;51.376;6.126;2022-10-17T03:57:08;101271.00;;;19.40
15626;BMP180;7912;51.376;6.126;2022-10-17T03:59:35;101272.00;;;19.40
15626;BMP180;7912;51.376;6.126;2022-10-17T04:02:03;101269.00;;;19.40
15626;BMP180;7912;51.376;6.126;2022-10-17T04:04:30;101287.00;;;19.40
15626;BMP180;7912;51.376;6.126;2022-10-17T04:06:58;101284.00;;;19.40
15626;BMP180;7912;51.376;6.126;2022-10-17T04:09:25;101279.00;;;19.40
15626;BMP180;7912;51.376;6.126;2022-10-17T04:11:53;101279.00;;;19.40
15626;BMP180;7912;51.376;6.126;2022-10-17T04:14:20;101273.00;;;19.40
15626;BMP180;7912;51.376;6.126;2022-10-17T04:16:48;101288.00;;;19.40
15626;BMP180;7912;51.376;6.126;2022-10-17T04:19:34;101280.00;;;19.40
15626;BMP180;7912;51.376;6.126;2022-10-17T04:22:40;101281.00;;;19.40
15626;BMP180;7912;51.376;6.126;2022-10-17T04:25:08;101282.00;;;19.40
15626;BMP180;7912;51.376;6.126;2022-10-17T04:27:36;101282.00;;;19.40
15626;BMP180;7912;51.376;6.126;2022-10-17T04:30:04;101296.00;;;19.40
15626;BMP180;7912;51.376;6.126;2022-10-17T04:32:35;101299.00;;;19.40
15626;BMP180;7912;51.376;6.126;2022-10-17T04:35:03;101291.00;;;19.40
15626;BMP180;7912;51.376;6.126;2022-10-17T04:37:30;101311.00;;;19.40
15626;BMP180;7912;51.376;6.126;2022-10-17T04:40:19;101307.00;;;19.40
15626;BMP180;7912;51.376;6.126;2022-10-17T04:42:46;101303.00;;;19.40
15626;BMP180;7912;51.376;6.126;2022-10-17T04:45:14;101301.00;;;19.50
15626;BMP180;7912;51.376;6.126;2022-10-17T04:47:41;101310.00;;;19.50
15626;BMP180;7912;51.376;6.126;2022-10-17T04:50:09;101306.00;;;19.50
15626;BMP180;7912;51.376;6.126;2022-10-17T04:52:36;101305.00;;;19.60
15626;BMP180;7912;51.376;6.126;2022-10-17T04:55:07;101313.00;;;19.60
15626;BMP180;7912;51.376;6.126;2022-10-17T04:57:35;101314.00;;;19.60
15626;BMP180;7912;51.376;6.126;2022-10-17T05:00:03;101315.00;;;19.60
15626;BMP180;7912;51.376;6.126;2022-10-17T05:02:31;101313.00;;;19.60
15626;BMP180;7912;51.376;6.126;2022-10-17T05:04:58;101315.00;;;19.60
15626;BMP180;7912;51.376;6.126;2022-10-17T05:07:26;101319.00;;;19.60
15626;BMP180;7912;51.376;6.126;2022-10-17T05:09:53;101318.00;;;19.60
15626;BMP180;7912;51.376;6.126;2022-10-17T05:12:21;101322.00;;;19.60
15626;BMP180;7912;51.376;6.126;2022-10-17T05:14:48;101313.00;;;19.60
15626;BMP180;7912;51.376;6.126;2022-10-17T05:17:15;101337.00;;;19.60
15626;BMP180;7912;51.376;6.126;2022-10-17T05:19:43;101336.00;;;19.50
15626;BMP180;7912;51.376;6.126;2022-10-17T05:22:10;101340.00;;;19.50
15626;BMP180;7912;51.376;6.126;2022-10-17T05:24:37;101339.00;;;19.50
15626;BMP180;7912;51.376;6.126;2022-10-17T05:27:05;101333.00;;;19.50
15626;BMP180;7912;51.376;6.126;2022-10-17T05:29:33;101329.00;;;19.50
15626;BMP180;7912;51.376;6.126;2022-10-17T05:32:01;101332.00;;;19.50
15626;BMP180;7912;51.376;6.126;2022-10-17T05:34:29;101323.00;;;19.50
15626;BMP180;7912;51.376;6.126;2022-10-17T05:36:57;101319.00;;;19.40
15626;BMP180;7912;51.376;6.126;2022-10-17T05:39:24;101322.00;;;19.40
15626;BMP180;7912;51.376;6.126;2022-10-17T05:41:51;101333.00;;;19.40
15626;BMP180;7912;51.376;6.126;2022-10-17T05:44:19;101340.00;;;19.40
15626;BMP180;7912;51.376;6.126;2022-10-17T05:46:48;101335.00;;;19.40
15626;BMP180;7912;51.376;6.126;2022-10-17T05:49:16;101333.00;;;19.40
15626;BMP180;7912;51.376;6.126;2022-10-17T05:52:04;101342.00;;;19.40
15626;BMP180;7912;51.376;6.126;2022-10-17T05:54:32;101339.00;;;19.30
15626;BMP180;7912;51.376;6.126;2022-10-17T05:57:00;101336.00;;;19.40
15626;BMP180;7912;51.376;6.126;2022-10-17T05:59:28;101343.00;;;19.40
15626;BMP180;7912;51.376;6.126;2022-10-17T06:01:56;101342.00;;;19.40
15626;BMP180;7912;51.376;6.126;2022-10-17T06:04:24;101332.00;;;19.40
15626;BMP180;7912;51.376;6.126;2022-10-17T06:06:53;101336.00;;;19.40
15626;BMP180;7912;51.376;6.126;2022-10-17T06:09:23;101340.00;;;19.40
15626;BMP180;7912;51.376;6.126;2022-10-17T06:11:52;101346.00;;;19.50
15626;BMP180;7912;51.376;6.126;2022-10-17T06:14:19;101345.00;;;19.50
15626;BMP180;7912;51.376;6.126;2022-10-17T06:16:48;101346.00;;;19.50
15626;BMP180;7912;51.376;6.126;2022-10-17T06:19:15;101339.00;;;19.50
15626;BMP180;7912;51.376;6.126;2022-10-17T06:21:43;101348.00;;;19.60
15626;BMP180;7912;51.376;6.126;2022-10-17T06:24:11;101349.00;;;19.60
15626;BMP180;7912;51.376;6.126;2022-10-17T06:26:39;101358.00;;;19.60
15626;BMP180;7912;51.376;6.126;2022-10-17T06:29:08;101359.00;;;19.60
15626;BMP180;7912;51.376;6.126;2022-10-17T06:31:55;101368.00;;;19.60
15626;BMP180;7912;51.376;6.126;2022-10-17T06:34:22;101371.00;;;19.60
15626;BMP180;7912;51.376;6.126;2022-10-17T06:36:49;101371.00;;;19.70
15626;BMP180;7912;51.376;6.126;2022-10-17T06:39:17;101378.00;;;19.70
15626;BMP180;7912;51.376;6.126;2022-10-17T06:41:45;101377.00;;;19.70
15626;BMP180;7912;51.376;6.126;2022-10-17T06:44:12;101381.00;;;19.70
15626;BMP180;7912;51.376;6.126;2022-10-17T06:46:40;101378.00;;;19.80
15626;BMP180;7912;51.376;6.126;2022-10-17T06:49:09;101370.00;;;19.80
15626;BMP180;7912;51.376;6.126;2022-10-17T06:51:37;101371.00;;;19.80
15626;BMP180;7912;51.376;6.126;2022-10-17T06:54:04;101383.00;;;19.90
15626;BMP180;7912;51.376;6.126;2022-10-17T06:56:32;101367.00;;;19.90
15626;BMP180;7912;51.376;6.126;2022-10-17T06:58:59;101374.00;;;19.90
15626;BMP180;7912;51.376;6.126;2022-10-17T07:01:26;101377.00;;;20.00
15626;BMP180;7912;51.376;6.126;2022-10-17T07:03:55;101371.00;;;20.00
15626;BMP180;7912;51.376;6.126;2022-10-17T07:06:23;101380.00;;;20.10
15626;BMP180;7912;51.376;6.126;2022-10-17T07:08:54;101368.00;;;20.20
15626;BMP180;7912;51.376;6.126;2022-10-17T07:11:24;101375.00;;;20.20
15626;BMP180;7912;51.376;6.126;2022-10-17T07:13:51;101386.00;;;20.30
15626;BMP180;7912;51.376;6.126;2022-10-17T07:16:19;101388.00;;;20.30
15626;BMP180;7912;51.376;6.126;2022-10-17T07:18:50;101390.00;;;20.40
15626;BMP180;7912;51.376;6.126;2022-10-17T07:21:19;101389.00;;;20.40
15626;BMP180;7912;51.376;6.126;2022-10-17T07:23:46;101391.00;;;20.50
15626;BMP180;7912;51.376;6.126;2022-10-17T07:26:15;101389.00;;;20.60
15626;BMP180;7912;51.376;6.126;2022-10-17T07:28:45;101395.00;;;20.60
15626;BMP180;7912;51.376;6.126;2022-10-17T07:31:18;101410.00;;;20.70
15626;BMP180;7912;51.376;6.126;2022-10-17T07:33:47;101411.00;;;20.80
15626;BMP180;7912;51.376;6.126;2022-10-17T07:36:15;101406.00;;;20.80
15626;BMP180;7912;51.376;6.126;2022-10-17T07:38:43;101411.00;;;20.90
15626;BMP180;7912;51.376;6.126;2022-10-17T07:41:12;101405.00;;;21.00
15626;BMP180;7912;51.376;6.126;2022-10-17T07:43:47;101402.00;;;21.10
15626;BMP180;7912;51.376;6.126;2022-10-17T07:46:14;101415.00;;;21.20
15626;BMP180;7912;51.376;6.126;2022-10-17T07:48:42;101425.00;;;21.20
15626;BMP180;7912;51.376;6.126;2022-10-17T07:51:10;101429.00;;;21.30
15626;BMP180;7912;51.376;6.126;2022-10-17T07:53:38;101430.00;;;21.40
15626;BMP180;7912;51.376;6.126;2022-10-17T07:56:12;101431.00;;;21.50
15626;BMP180;7912;51.376;6.126;2022-10-17T07:58:40;101431.00;;;21.70
15626;BMP180;7912;51.376;6.126;2022-10-17T08:01:09;101447.00;;;21.80
15626;BMP180;7912;51.376;6.126;2022-10-17T08:03:44;101455.00;;;22.00
15626;BMP180;7912;51.376;6.126;2022-10-17T08:06:12;101462.00;;;22.10
15626;BMP180;7912;51.376;6.126;2022-10-17T08:08:40;101451.00;;;22.30
15626;BMP180;7912;51.376;6.126;2022-10-17T08:11:12;101460.00;;;22.40
15626;BMP180;7912;51.376;6.126;2022-10-17T08:13:40;101463.00;;;22.50
15626;BMP180;7912;51.376;6.126;2022-10-17T08:16:11;101457.00;;;22.70
15626;BMP180;7912;51.376;6.126;2022-10-17T08:18:41;101474.00;;;22.80
15626;BMP180;7912;51.376;6.126;2022-10-17T08:21:11;101485.00;;;22.90
15626;BMP180;7912;51.376;6.126;2022-10-17T08:23:39;101485.00;;;23.00
15626;BMP180;7912;51.376;6.126;2022-10-17T08:26:08;101491.00;;;23.10
15626;BMP180;7912;51.376;6.126;2022-10-17T08:28:39;101492.00;;;23.30
15626;BMP180;7912;51.376;6.126;2022-10-17T08:31:14;101493.00;;;23.40
15626;BMP180;7912;51.376;6.126;2022-10-17T08:33:42;101492.00;;;23.50
15626;BMP180;7912;51.376;6.126;2022-10-17T08:36:13;101503.00;;;23.60
15626;BMP180;7912;51.376;6.126;2022-10-17T08:38:41;101500.00;;;23.70
15626;BMP180;7912;51.376;6.126;2022-10-17T08:47:00;101521.00;;;24.10
15626;BMP180;7912;51.376;6.126;2022-10-17T08:49:51;101526.00;;;24.10
15626;BMP180;7912;51.376;6.126;2022-10-17T08:52:51;101529.00;;;24.10
15626;BMP180;7912;51.376;6.126;2022-10-17T08:55:43;101540.00;;;24.10
15626;BMP180;7912;51.376;6.126;2022-10-17T08:58:31;101553.00;;;24.20
15626;BMP180;7912;51.376;6.126;2022-10-17T09:06:36;101557.00;;;24.40
15626;BMP180;7912;51.376;6.126;2022-10-17T09:09:57;101563.00;;;24.40
15626;BMP180;7912;51.376;6.126;2022-10-17T09:18:46;101570.00;;;24.40
15626;BMP180;7912;51.376;6.126;2022-10-17T09:22:22;101573.00;;;24.40
15626;BMP180;7912;51.376;6.126;2022-10-17T09:27:31;101587.00;;;24.40
15626;BMP180;7912;51.376;6.126;2022-10-17T09:30:45;101591.00;;;24.40
15626;BMP180;7912;51.376;6.126;2022-10-17T09:33:26;101591.00;;;24.30
15626;BMP180;7912;51.376;6.126;2022-10-17T09:36:33;101613.00;;;24.20
15626;BMP180;7912;51.376;6.126;2022-10-17T09:39:13;101620.00;;;24.20
15626;BMP180;7912;51.376;6.126;2022-10-17T09:41:54;101609.00;;;24.10
15626;BMP180;7912;51.376;6.126;2022-10-17T09:44:34;101613.00;;;24.00
15626;BMP180;7912;51.376;6.126;2022-10-17T09:47:14;101606.00;;;24.00
15626;BMP180;7912;51.376;6.126;2022-10-17T09:49:46;101600.00;;;24.00
15626;BMP180;7912;51.376;6.126;2022-10-17T09:52:26;101604.00;;;24.00
15626;BMP180;7912;51.376;6.126;2022-10-17T09:55:29;101595.00;;;24.00
15626;BMP180;7912;51.376;6.126;2022-10-17T09:58:04;101588.00;;;24.00
15626;BMP180;7912;51.376;6.126;2022-10-17T10:00:36;101580.00;;;24.00
15626;BMP180;7912;51.376;6.126;2022-10-17T10:06:11;101570.00;;;24.00
15626;BMP180;7912;51.376;6.126;2022-10-17T10:08:57;101603.00;;;24.10
15626;BMP180;7912;51.376;6.126;2022-10-17T10:11:48;101603.00;;;24.10
15626;BMP180;7912;51.376;6.126;2022-10-17T10:14:34;101629.00;;;24.10
15626;BMP180;7912;51.376;6.126;2022-10-17T10:17:05;101644.00;;;24.10
15626;BMP180;7912;51.376;6.126;2022-10-17T10:19:36;101634.00;;;24.10
15626;BMP180;7912;51.376;6.126;2022-10-17T10:22:14;101644.00;;;24.10
15626;BMP180;7912;51.376;6.126;2022-10-17T10:24:42;101646.00;;;24.10
15626;BMP180;7912;51.376;6.126;2022-10-17T10:27:16;101641.00;;;24.00
15626;BMP180;7912;51.376;6.126;2022-10-17T10:29:51;101641.00;;;24.00
15626;BMP180;7912;51.376;6.126;2022-10-17T10:32:25;101648.00;;;23.90
15626;BMP180;7912;51.376;6.126;2022-10-17T10:35:05;101630.00;;;23.80
15626;BMP180;7912;51.376;6.126;2022-10-17T10:37:42;101638.00;;;23.60
15626;BMP180;7912;51.376;6.126;2022-10-17T10:40:36;101649.00;;;23.50
15626;BMP180;7912;51.376;6.126;2022-10-17T10:43:36;101668.00;;;23.30
15626;BMP180;7912;51.376;6.126;2022-10-17T10:46:26;101667.00;;;23.20
15626;BMP180;7912;51.376;6.126;2022-10-17T10:48:59;101656.00;;;23.20
15626;BMP180;7912;51.376;6.126;2022-10-17T10:51:39;101655.00;;;23.20
15626;BMP180;7912;51.376;6.126;2022-10-17T10:54:16;101659.00;;;23.20
15626;BMP180;7912;51.376;6.126;2022-10-17T10:56:53;101641.00;;;23.20
15626;BMP180;7912;51.376;6.126;2022-10-17T11:00:05;101604.00;;;23.10
15626;BMP180;7912;51.376;6.126;2022-10-17T11:03:16;101639.00;;;23.10
15626;BMP180;7912;51.376;6.126;2022-10-17T11:06:04;101662.00;;;23.10
15626;BMP180;7912;51.376;6.126;2022-10-17T11:08:49;101648.00;;;23.10
15626;BMP180;7912;51.376;6.126;2022-10-17T11:11:34;101656.00;;;23.20
15626;BMP180;7912;51.376;6.126;2022-10-17T11:14:29;101647.00;;;23.30
15626;BMP180;7912;51.376;6.126;2022-10-17T11:22:54;101678.00;;;23.50
15626;BMP180;7912;51.376;6.126;2022-10-17T11:25:38;101684.00;;;23.60
15626;BMP180;7912;51.376;6.126;2022-10-17T11:28:19;101687.00;;;23.60
15626;BMP180;7912;51.376;6.126;2022-10-17T11:31:08;101686.00;;;23.60
15626;BMP180;7912;51.376;6.126;2022-10-17T11:34:18;101692.00;;;23.60
15626;BMP180;7912;51.376;6.126;2022-10-17T11:36:55;101689.00;;;23.50
15626;BMP180;7912;51.376;6.126;2022-10-17T11:42:16;101700.00;;;23.50
15626;BMP180;7912;51.376;6.126;2022-10-17T11:44:47;101707.00;;;23.50
15626;BMP180;7912;51.376;6.126;2022-10-17T11:47:49;101716.00;;;23.50
15626;BMP180;7912;51.376;6.126;2022-10-17T11:50:26;101716.00;;;23.50
15626;BMP180;7912;51.376;6.126;2022-10-17T11:53:22;101708.00;;;23.50
15626;BMP180;7912;51.376;6.126;2022-10-17T11:55:53;101715.00;;;23.50
15626;BMP180;7912;51.376;6.126;2022-10-17T12:01:29;101707.00;;;23.60
15626;BMP180;7912;51.376;6.126;2022-10-17T12:04:13;101702.00;;;23.60
15626;BMP180;7912;51.376;6.126;2022-10-17T12:07:13;101706.00;;;23.60
15626;BMP180;7912;51.376;6.126;2022-10-17T12:10:19;101713.00;;;23.60
15626;BMP180;7912;51.376;6.126;2022-10-17T12:12:48;101714.00;;;23.60
15626;BMP180;7912;51.376;6.126;2022-10-17T12:17:55;101727.00;;;23.60
15626;BMP180;7912;51.376;6.126;2022-10-17T12:26:02;101731.00;;;23.40
15626;BMP180;7912;51.376;6.126;2022-10-17T12:28:42;101733.00;;;23.40
15626;BMP180;7912;51.376;6.126;2022-10-17T12:34:00;101726.00;;;23.40
15626;BMP180;7912;51.376;6.126;2022-10-17T12:49:45;101747.00;;;23.40
15626;BMP180;7912;51.376;6.126;2022-10-17T12:52:26;101748.00;;;23.30
15626;BMP180;7912;51.376;6.126;2022-10-17T12:55:18;101757.00;;;23.30
15626;BMP180;7912;51.376;6.126;2022-10-17T12:58:11;101750.00;;;23.20
15626;BMP180;7912;51.376;6.126;2022-10-17T13:00:50;101752.00;;;23.20
15626;BMP180;7912;51.376;6.126;2022-10-17T13:03:45;101745.00;;;23.20
15626;BMP180;7912;51.376;6.126;2022-10-17T13:06:26;101751.00;;;23.20
15626;BMP180;7912;51.376;6.126;2022-10-17T13:09:21;101756.00;;;23.10
15626;BMP180;7912;51.376;6.126;2022-10-17T13:11:52;101772.00;;;23.10
15626;BMP180;7912;51.376;6.126;2022-10-17T13:14:22;101764.00;;;23.10
15626;BMP180;7912;51.376;6.126;2022-10-17T13:16:51;101776.00;;;23.10
15626;BMP180;7912;51.376;6.126;2022-10-17T13:19:29;101770.00;;;23.20
15626;BMP180;7912;51.376;6.126;2022-10-17T13:22:02;101779.00;;;23.10
15626;BMP180;7912;51.376;6.126;2022-10-17T13:24:39;101781.00;;;23.10
15626;BMP180;7912;51.376;6.126;2022-10-17T13:27:30;101785.00;;;23.00
15626;BMP180;7912;51.376;6.126;2022-10-17T13:30:16;101783.00;;;23.00
15626;BMP180;7912;51.376;6.126;2022-10-17T13:32:46;101783.00;;;23.00
15626;BMP180;7912;51.376;6.126;2022-10-17T13:35:21;101789.00;;;23.00
15626;BMP180;7912;51.376;6.126;2022-10-17T13:38:12;101800.00;;;23.00
15626;BMP180;7912;51.376;6.126;2022-10-17T13:40:42;101802.00;;;23.00
15626;BMP180;7912;51.376;6.126;2022-10-17T13:43:20;101803.00;;;23.00
15626;BMP180;7912;51.376;6.126;2022-10-17T13:45:56;101813.00;;;23.00
15626;BMP180;7912;51.376;6.126;2022-10-17T13:48:47;101807.00;;;23.00
15626;BMP180;7912;51.376;6.126;2022-10-17T13:51:16;101808.00;;;23.00
15626;BMP180;7912;51.376;6.126;2022-10-17T13:53:43;101806.00;;;23.00
15626;BMP180;7912;51.376;6.126;2022-10-17T13:56:54;101817.00;;;23.00
15626;BMP180;7912;51.376;6.126;2022-10-17T14:03:04;101831.00;;;22.90
15626;BMP180;7912;51.376;6.126;2022-10-17T14:05:33;101829.00;;;22.90
15626;BMP180;7912;51.376;6.126;2022-10-17T14:08:03;101830.00;;;22.90
15626;BMP180;7912;51.376;6.126;2022-10-17T14:10:41;101837.00;;;22.90
15626;BMP180;7912;51.376;6.126;2022-10-17T14:13:31;101834.00;;;22.90
15626;BMP180;7912;51.376;6.126;2022-10-17T14:16:23;101842.00;;;22.90
15626;BMP180;7912;51.376;6.126;2022-10-17T14:18:53;101838.00;;;22.90
15626;BMP180;7912;51.376;6.126;2022-10-17T14:21:25;101851.00;;;22.90
15626;BMP180;7912;51.376;6.126;2022-10-17T14:24:25;101849.00;;;22.90
15626;BMP180;7912;51.376;6.126;2022-10-17T14:26:57;101847.00;;;22.80
15626;BMP180;7912;51.376;6.126;2022-10-17T14:29:49;101855.00;;;22.80
15626;BMP180;7912;51.376;6.126;2022-10-17T14:32:18;101875.00;;;22.80
15626;BMP180;7912;51.376;6.126;2022-10-17T14:34:53;101884.00;;;22.80
15626;BMP180;7912;51.376;6.126;2022-10-17T14:37:45;101874.00;;;22.80
15626;BMP180;7912;51.376;6.126;2022-10-17T14:40:21;101875.00;;;22.80
15626;BMP180;7912;51.376;6.126;2022-10-17T14:42:59;101891.00;;;22.80
15626;BMP180;7912;51.376;6.126;2022-10-17T14:45:36;101887.00;;;22.70
15626;BMP180;7912;51.376;6.126;2022-10-17T14:48:15;101903.00;;;22.70
15626;BMP180;7912;51.376;6.126;2022-10-17T14:51:12;101903.00;;;22.70
15626;BMP180;7912;51.376;6.126;2022-10-17T14:54:15;101908.00;;;22.70
15626;BMP180;7912;51.376;6.126;2022-10-17T14:56:46;101899.00;;;22.70
15626;BMP180;7912;51.376;6.126;2022-10-17T14:59:15;101887.00;;;22.70
15626;BMP180;7912;51.376;6.126;2022-10-17T15:02:05;101874.00;;;22.70
15626;BMP180;7912;51.376;6.126;2022-10-17T15:04:33;101873.00;;;22.70
15626;BMP180;7912;51.376;6.126;2022-10-17T15:07:01;101872.00;;;22.70
15626;BMP180;7912;51.376;6.126;2022-10-17T15:09:29;101893.00;;;22.70
15626;BMP180;7912;51.376;6.126;2022-10-17T15:12:14;101889.00;;;22.60
15626;BMP180;7912;51.376;6.126;2022-10-17T15:14:43;101889.00;;;22.60
15626;BMP180;7912;51.376;6.126;2022-10-17T15:17:24;101900.00;;;22.60
15626;BMP180;7912;51.376;6.126;2022-10-17T15:19:53;101916.00;;;22.60
15626;BMP180;7912;51.376;6.126;2022-10-17T15:22:21;101930.00;;;22.60
15626;BMP180;7912;51.376;6.126;2022-10-17T15:24:49;101940.00;;;22.60
15626;BMP180;7912;51.376;6.126;2022-10-17T15:27:23;101939.00;;;22.50
15626;BMP180;7912;51.376;6.126;2022-10-17T15:29:52;101940.00;;;22.50
15626;BMP180;7912;51.376;6.126;2022-10-17T15:32:19;101950.00;;;22.50
15626;BMP180;7912;51.376;6.126;2022-10-17T15:34:47;101961.00;;;22.50
15626;BMP180;7912;51.376;6.126;2022-10-17T15:37:24;101957.00;;;22.40
15626;BMP180;7912;51.376;6.126;2022-10-17T15:40:29;101952.00;;;22.40
15626;BMP180;7912;51.376;6.126;2022-10-17T15:42:57;101959.00;;;22.30
15626;BMP180;7912;51.376;6.126;2022-10-17T15:45:24;101965.00;;;22.30
15626;BMP180;7912;51.376;6.126;2022-10-17T15:48:03;101950.00;;;22.30
15626;BMP180;7912;51.376;6.126;2022-10-17T15:50:33;101945.00;;;22.30
15626;BMP180;7912;51.376;6.126;2022-10-17T15:53:01;101934.00;;;22.30
15626;BMP180;7912;51.376;6.126;2022-10-17T15:55:29;101947.00;;;22.30
15626;BMP180;7912;51.376;6.126;2022-10-17T15:57:58;101946.00;;;22.20
15626;BMP180;7912;51.376;6.126;2022-10-17T16:00:26;101949.00;;;22.20
15626;BMP180;7912;51.376;6.126;2022-10-17T16:02:54;101959.00;;;22.20
15626;BMP180;7912;51.376;6.126;2022-10-17T16:05:25;101954.00;;;22.20
15626;BMP180;7912;51.376;6.126;2022-10-17T16:07:54;101956.00;;;22.20
15626;BMP180;7912;51.376;6.126;2022-10-17T16:10:23;101970.00;;;22.20
15626;BMP180;7912;51.376;6.126;2022-10-17T16:12:52;101959.00;;;22.10
15626;BMP180;7912;51.376;6.126;2022-10-17T16:15:41;101953.00;;;22.10
15626;BMP180;7912;51.376;6.126;2022-10-17T16:18:08;101964.00;;;22.10
15626;BMP180;7912;51.376;6.126;2022-10-17T16:20:37;101969.00;;;22.00
15626;BMP180;7912;51.376;6.126;2022-10-17T16:23:05;101970.00;;;22.00
15626;BMP180;7912;51.376;6.126;2022-10-17T16:25:52;101977.00;;;22.00